createdAt,value
2023-04-16T00:02:28.749Z,100049.84
2023-04-16T00:05:31.740Z,99976.44
2023-04-16T00:08:35.765Z,100054.37
2023-04-16T00:11:38.469Z,100052.78
2023-04-16T00:14:40.894Z,100023.78
2023-04-16T00:17:43.536Z,100061.22
2023-04-16T00:20:47.534Z,100055.72
2023-04-16T00:23:50.572Z,100051.84
2023-04-16T00:26:52.915Z,100049.28
2023-04-16T00:29:55.627Z,100052.38
2023-04-16T00:32:58.889Z,100056.59
2023-04-16T00:36:01.735Z,100050.59
2023-04-16T00:39:04.313Z,100055.28
2023-04-16T00:42:07.032Z,100035.81
2023-04-16T00:45:10.349Z,100066.78
2023-04-16T00:48:13.001Z,100050.00
2023-04-16T00:51:15.684Z,100060.31
2023-04-16T00:54:19.523Z,100059.38
2023-04-16T00:57:23.965Z,100056.81
2023-04-16T01:00:27.034Z,100058.75
2023-04-16T01:03:39.392Z,100046.97
2023-04-16T01:06:42.182Z,100043.56
2023-04-16T01:09:44.499Z,100047.47
2023-04-16T01:12:48.129Z,100061.34
2023-04-16T01:15:50.654Z,100069.56
2023-04-16T01:18:53.330Z,100064.91
2023-04-16T01:21:55.740Z,100069.59
2023-04-16T01:24:58.368Z,100066.84
2023-04-16T01:28:00.677Z,100065.72
2023-04-16T01:31:03.349Z,100063.31
2023-04-16T01:34:07.682Z,100062.34
2023-04-16T01:37:12.939Z,100074.28
2023-04-16T01:40:15.530Z,100071.53
2023-04-16T01:43:18.154Z,100081.56
2023-04-16T01:46:33.382Z,100065.41
2023-04-16T01:49:37.057Z,100048.81
2023-04-16T01:52:39.491Z,100077.19
2023-04-16T01:55:42.073Z,100077.69
2023-04-16T01:58:46.098Z,100064.78
2023-04-16T02:01:48.918Z,100079.28
2023-04-16T02:04:52.019Z,100067.37
2023-04-16T02:07:54.503Z,100066.09
2023-04-16T02:11:00.419Z,100063.38
2023-04-16T02:14:02.785Z,100079.19
2023-04-16T02:17:05.438Z,100091.28
2023-04-16T02:20:10.265Z,100101.78
2023-04-16T02:23:17.093Z,100102.44
2023-04-16T02:26:19.788Z,100091.91
2023-04-16T02:29:23.090Z,100099.03
2023-04-16T02:32:26.686Z,100087.56
2023-04-16T02:35:29.465Z,100088.19
2023-04-16T02:38:31.923Z,100091.28
2023-04-16T02:41:34.647Z,100071.78
2023-04-16T02:44:37.021Z,100095.16
2023-04-16T02:47:40.026Z,100097.59
2023-04-16T02:50:42.357Z,100087.56
2023-04-16T02:53:46.146Z,100092.75
2023-04-16T02:56:48.742Z,100073.72
2023-04-16T02:59:51.401Z,100076.28
2023-04-16T03:02:53.844Z,100067.75
2023-04-16T03:05:56.650Z,100069.88
2023-04-16T03:08:59.042Z,100094.69
2023-04-16T03:12:02.517Z,100093.72
2023-04-16T03:15:05.402Z,100100.34
2023-04-16T03:18:08.044Z,100099.22
2023-04-16T03:21:10.489Z,100099.03
2023-04-16T03:24:13.621Z,100100.97
2023-04-16T03:27:16.310Z,100106.47
2023-04-16T03:30:20.134Z,100108.41
2023-04-16T03:33:22.850Z,100118.59
2023-04-16T03:36:27.197Z,100122.91
2023-04-16T03:39:31.674Z,100136.81
2023-04-16T03:42:34.393Z,100143.09
2023-04-16T03:45:44.265Z,100150.81
2023-04-16T03:48:47.666Z,100128.25
2023-04-16T03:51:51.259Z,100148.25
2023-04-16T03:54:56.056Z,100158.09
2023-04-16T03:58:02.975Z,100154.06
2023-04-16T04:01:06.425Z,100156.78
2023-04-16T04:04:09.786Z,100158.41
2023-04-16T04:07:12.654Z,100158.09
2023-04-16T04:10:16.274Z,100151.78
2023-04-16T04:13:19.248Z,100159.06
2023-04-16T04:16:21.982Z,100159.22
2023-04-16T04:19:24.377Z,100163.72
2023-04-16T04:22:26.997Z,100156.59
2023-04-16T04:25:29.513Z,100157.25
2023-04-16T04:28:35.560Z,100159.34
2023-04-16T04:31:38.271Z,100163.25
2023-04-16T04:34:41.117Z,100170.94
2023-04-16T04:37:43.887Z,100182.09
2023-04-16T04:40:47.058Z,100175.81
2023-04-16T04:43:50.409Z,100184.03
2023-04-16T04:46:54.733Z,100176.44
2023-04-16T04:49:57.210Z,100181.00
2023-04-16T04:53:00.536Z,100185.97
2023-04-16T04:56:12.254Z,100184.69
2023-04-16T04:59:15.788Z,100187.91
2023-04-16T05:02:18.253Z,100191.66
2023-04-16T05:05:21.162Z,100164.69
2023-04-16T05:08:23.450Z,100194.56
2023-04-16T05:11:26.144Z,100194.72
2023-04-16T05:14:28.517Z,100192.31
2023-04-16T05:17:31.484Z,100196.00
2023-04-16T05:20:33.845Z,100184.91
2023-04-16T05:23:36.898Z,100193.75
2023-04-16T05:26:39.196Z,100188.25
2023-04-16T05:29:41.796Z,100188.91
2023-04-16T05:32:44.261Z,100198.25
2023-04-16T05:35:46.998Z,100209.72
2023-04-16T05:38:49.314Z,100211.16
2023-04-16T05:41:53.944Z,100176.63
2023-04-16T05:44:56.351Z,100220.41
2023-04-16T05:47:59.534Z,100224.44
2023-04-16T05:51:02.764Z,100223.78
2023-04-16T05:54:05.416Z,100235.56
2023-04-16T05:57:07.726Z,100225.38
2023-04-16T06:00:10.598Z,100235.72
2023-04-16T06:03:14.616Z,100207.66
2023-04-16T06:06:17.394Z,100241.38
2023-04-16T06:09:19.726Z,100194.22
2023-04-16T06:12:22.457Z,100242.84
2023-04-16T06:15:24.749Z,100236.87
2023-04-16T06:18:27.413Z,100238.47
2023-04-16T06:21:29.923Z,100239.12
2023-04-16T06:24:32.521Z,100221.53
2023-04-16T06:27:34.858Z,100241.22
2023-04-16T06:30:37.478Z,100230.25
2023-04-16T06:33:39.851Z,100222.81
2023-04-16T06:36:42.459Z,100235.88
2023-04-16T06:39:44.834Z,100201.62
2023-04-16T06:42:47.493Z,100232.09
2023-04-16T06:45:50.104Z,100232.06
2023-04-16T06:48:52.750Z,100226.50
2023-04-16T06:51:55.159Z,100234.53
2023-04-16T06:54:58.054Z,100232.03
2023-04-16T06:58:00.404Z,100228.84
2023-04-16T07:01:03.175Z,100205.25
2023-04-16T07:04:05.744Z,100208.34
2023-04-16T07:07:08.986Z,100233.72
2023-04-16T07:10:11.300Z,100218.53
2023-04-16T07:13:14.972Z,100237.47
2023-04-16T07:16:18.157Z,100213.25
2023-04-16T07:19:21.112Z,100225.78
2023-04-16T07:22:23.435Z,100219.47
2023-04-16T07:25:26.957Z,100239.56
2023-04-16T07:28:29.270Z,100215.22
2023-04-16T07:31:31.955Z,100226.78
2023-04-16T07:34:34.262Z,100233.22
2023-04-16T07:37:37.047Z,100242.31
2023-04-16T07:40:39.478Z,100240.91
2023-04-16T07:43:42.033Z,100231.16
2023-04-16T07:46:47.478Z,100222.88
2023-04-16T07:49:51.076Z,100208.28
2023-04-16T07:52:53.749Z,100234.81
2023-04-16T07:55:56.483Z,100234.13
2023-04-16T07:59:07.944Z,100219.66
2023-04-16T08:02:17.671Z,100242.28
2023-04-16T08:05:20.451Z,100223.31
2023-04-16T08:08:22.830Z,100224.91
2023-04-16T08:11:25.771Z,100227.66
2023-04-16T08:14:28.351Z,100236.94
2023-04-16T08:17:31.038Z,100240.37
2023-04-16T08:20:33.356Z,100224.22
2023-04-16T08:23:36.007Z,100220.72
2023-04-16T08:26:38.361Z,100248.38
2023-04-16T08:29:40.920Z,100236.94
2023-04-16T08:32:43.657Z,100229.97
2023-04-16T08:35:46.376Z,100257.31
2023-04-16T08:38:48.702Z,100251.06
2023-04-16T08:41:53.956Z,100251.69
2023-04-16T08:45:08.842Z,100246.16
2023-04-16T08:48:12.239Z,100241.91
2023-04-16T08:51:16.024Z,100262.25
2023-04-16T08:54:26.828Z,100259.34
2023-04-16T08:57:33.719Z,100240.00
2023-04-16T09:00:37.952Z,100275.25
2023-04-16T09:03:41.747Z,100255.44
2023-04-16T09:06:45.430Z,100272.97
2023-04-16T09:09:49.710Z,100272.81
2023-04-16T09:12:52.340Z,100268.03
2023-04-16T09:15:57.100Z,100274.03
2023-04-16T09:19:00.297Z,100273.31
2023-04-16T09:22:02.701Z,100270.66
2023-04-16T09:25:05.846Z,100276.69
2023-04-16T09:28:09.029Z,100295.44
2023-04-16T09:31:18.009Z,100284.56
2023-04-16T09:34:21.017Z,100289.16
2023-04-16T09:37:24.726Z,100288.81
2023-04-16T09:40:30.329Z,100273.22
2023-04-16T09:43:33.066Z,100289.84
2023-04-16T09:46:37.686Z,100302.06
2023-04-16T09:49:44.089Z,100274.25
2023-04-16T09:52:51.054Z,100284.06
2023-04-16T09:56:01.243Z,100282.13
2023-04-16T09:59:03.557Z,100295.44
2023-04-16T10:02:14.813Z,100302.69
2023-04-16T10:05:20.302Z,100267.44
2023-04-16T10:08:24.066Z,100271.78
2023-04-16T10:11:27.205Z,100273.25
2023-04-16T10:14:29.692Z,100286.03
2023-04-16T10:17:33.444Z,100278.88
2023-04-16T10:20:37.096Z,100270.13
2023-04-16T10:23:40.953Z,100260.94
2023-04-16T10:26:44.420Z,100281.00
2023-04-16T10:29:49.794Z,100252.78
2023-04-16T10:32:52.696Z,100255.34
2023-04-16T10:36:27.976Z,100268.59
2023-04-16T10:39:31.232Z,100277.00
2023-04-16T10:42:34.568Z,100262.94
2023-04-16T10:45:40.190Z,100251.84
2023-04-16T10:48:49.629Z,100258.78
2023-04-16T10:51:54.097Z,100246.44
2023-04-16T10:54:59.297Z,100249.72
2023-04-16T10:58:01.536Z,100243.34
2023-04-16T11:01:12.433Z,100245.81
2023-04-16T11:04:38.828Z,100227.47
2023-04-16T11:07:49.414Z,100243.84
2023-04-16T11:10:52.412Z,100242.62
2023-04-16T11:13:56.447Z,100237.78
2023-04-16T11:16:58.954Z,100240.09
2023-04-16T11:20:01.856Z,100240.47
2023-04-16T11:23:10.969Z,100219.97
2023-04-16T11:26:30.518Z,100236.66
2023-04-16T11:29:32.913Z,100246.28
2023-04-16T11:32:37.533Z,100224.13
2023-04-16T11:35:41.462Z,100217.81
2023-04-16T11:38:44.520Z,100225.84
2023-04-16T11:41:52.368Z,100209.87
2023-04-16T11:44:56.756Z,100237.03
2023-04-16T11:47:59.113Z,100233.00
2023-04-16T11:51:01.799Z,100234.56
2023-04-16T11:54:04.344Z,100211.75
2023-04-16T11:57:07.024Z,100218.09
2023-04-16T12:00:15.810Z,100239.59
2023-04-16T12:03:18.846Z,100235.12
2023-04-16T12:06:22.713Z,100217.84
2023-04-16T12:09:27.372Z,100229.47
2023-04-16T12:12:32.409Z,100220.22
2023-04-16T12:16:16.601Z,100205.00
2023-04-16T12:19:19.164Z,100212.25
2023-04-16T12:22:36.814Z,100215.09
2023-04-16T12:25:43.065Z,100193.59
2023-04-16T12:28:45.682Z,100187.69
2023-04-16T12:31:52.433Z,100192.87
2023-04-16T12:34:55.131Z,100188.88
2023-04-16T12:37:57.686Z,100204.41
2023-04-16T12:41:02.384Z,100203.22
2023-04-16T12:44:11.928Z,100175.25
2023-04-16T12:47:14.741Z,100203.16
2023-04-16T12:50:17.320Z,100182.28
2023-04-16T12:53:19.986Z,100170.28
2023-04-16T12:56:22.441Z,100182.19
2023-04-16T12:59:25.142Z,100171.81
2023-04-16T13:02:27.877Z,100191.50
2023-04-16T13:05:30.872Z,100187.13
2023-04-16T13:08:33.499Z,100183.25
2023-04-16T13:11:36.406Z,100176.94
2023-04-16T13:14:39.560Z,100152.19
2023-04-16T13:17:42.214Z,100180.97
2023-04-16T13:20:44.648Z,100154.59
2023-04-16T13:23:47.314Z,100160.19
2023-04-16T13:26:50.686Z,100159.41
2023-04-16T13:29:53.361Z,100172.53
2023-04-16T13:32:56.724Z,100164.91
2023-04-16T13:35:59.507Z,100160.88
2023-04-16T13:39:04.635Z,100164.03
2023-04-16T13:42:10.829Z,100156.72
2023-04-16T13:45:13.225Z,100155.91
2023-04-16T13:48:16.116Z,100124.63
2023-04-16T13:51:18.419Z,100144.94
2023-04-16T13:54:21.021Z,100158.09
2023-04-16T13:57:23.426Z,100150.91
2023-04-16T14:00:27.338Z,100150.47
2023-04-16T14:03:30.095Z,100123.31
2023-04-16T14:06:33.245Z,100136.03
2023-04-16T14:09:35.960Z,100127.59
2023-04-16T14:12:39.320Z,100118.78
2023-04-16T14:15:42.059Z,100154.69
2023-04-16T14:18:44.649Z,100132.25
2023-04-16T14:21:47.280Z,100138.63
2023-04-16T14:24:49.591Z,100128.94
2023-04-16T14:27:54.242Z,100133.62
2023-04-16T14:30:56.555Z,100150.75
2023-04-16T14:33:59.707Z,100135.13
2023-04-16T14:37:02.212Z,100139.06
2023-04-16T14:40:08.640Z,100134.22
2023-04-16T14:43:10.984Z,100111.75
2023-04-16T14:46:17.427Z,100110.09
2023-04-16T14:49:19.910Z,100129.59
2023-04-16T14:52:22.620Z,100109.22
2023-04-16T14:55:24.967Z,100115.91
2023-04-16T14:58:27.662Z,100133.09
2023-04-16T15:01:30.120Z,100135.47
2023-04-16T15:04:32.950Z,100129.81
2023-04-16T15:07:35.444Z,100128.22
2023-04-16T15:10:38.124Z,100121.81
2023-04-16T15:13:40.413Z,100123.75
2023-04-16T15:16:43.122Z,100124.94
2023-04-16T15:19:45.516Z,100122.56
2023-04-16T15:22:48.160Z,100124.16
2023-04-16T15:25:50.616Z,100121.38
2023-04-16T15:28:53.439Z,100100.94
2023-04-16T15:31:55.999Z,100119.38
2023-04-16T15:35:00.126Z,100112.97
2023-04-16T15:38:02.361Z,100103.78
2023-04-16T15:41:04.976Z,100124.25
2023-04-16T15:44:07.337Z,100126.72
2023-04-16T15:47:09.972Z,100129.03
2023-04-16T15:50:12.531Z,100106.22
2023-04-16T15:53:15.286Z,100118.66
2023-04-16T15:56:17.782Z,100131.34
2023-04-16T15:59:20.618Z,100121.69
2023-04-16T16:02:23.253Z,100092.81
2023-04-16T16:05:26.294Z,100120.66
2023-04-16T16:08:29.588Z,100106.59
2023-04-16T16:11:32.670Z,100129.28
2023-04-16T16:14:35.141Z,100116.81
2023-04-16T16:17:38.061Z,100131.44
2023-04-16T16:20:40.677Z,100122.59
2023-04-16T16:23:43.328Z,100132.78
2023-04-16T16:26:45.670Z,100127.16
2023-04-16T16:29:48.389Z,100131.06
2023-04-16T16:32:51.226Z,100119.00
2023-04-16T16:35:53.886Z,100137.28
2023-04-16T16:38:56.954Z,100135.66
2023-04-16T16:41:59.596Z,100130.44
2023-04-16T16:45:06.207Z,100119.72
2023-04-16T16:48:09.162Z,100128.41
2023-04-16T16:51:11.692Z,100126.81
2023-04-16T16:54:14.744Z,100126.03
2023-04-16T16:57:19.328Z,100114.34
2023-04-16T17:00:22.261Z,100128.37
2023-04-16T17:03:24.740Z,100119.50
2023-04-16T17:06:27.778Z,100138.66
2023-04-16T17:09:30.147Z,100147.00
2023-04-16T17:12:32.890Z,100139.41
2023-04-16T17:15:35.226Z,100140.06
2023-04-16T17:18:37.821Z,100129.25
2023-04-16T17:21:40.200Z,100147.56
2023-04-16T17:24:42.991Z,100111.09
2023-04-16T17:27:45.373Z,100149.84
2023-04-16T17:30:51.703Z,100161.31
2023-04-16T17:33:54.080Z,100150.75
2023-04-16T17:36:56.701Z,100159.91
2023-04-16T17:39:58.998Z,100139.38
2023-04-16T17:43:01.630Z,100162.47
2023-04-16T17:46:04.063Z,100162.72
2023-04-16T17:49:06.730Z,100166.19
2023-04-16T17:52:09.109Z,100170.81
2023-04-16T17:55:11.938Z,100162.00
2023-04-16T17:58:14.227Z,100165.41
2023-04-16T18:01:16.882Z,100168.91
2023-04-16T18:04:19.835Z,100180.75
2023-04-16T18:07:22.292Z,100175.06
2023-04-16T18:10:24.989Z,100188.41
2023-04-16T18:13:27.340Z,100179.28
2023-04-16T18:16:30.017Z,100183.53
2023-04-16T18:19:32.380Z,100166.44
2023-04-16T18:22:34.980Z,100182.06
2023-04-16T18:25:37.507Z,100199.87
2023-04-16T18:28:41.095Z,100182.84
2023-04-16T18:31:44.104Z,100201.31
2023-04-16T18:34:46.899Z,100166.88
2023-04-16T18:37:49.303Z,100190.13
2023-04-16T18:40:52.171Z,100148.47
2023-04-16T18:43:54.558Z,100177.38
2023-04-16T18:46:57.240Z,100170.16
2023-04-16T18:49:59.566Z,100175.19
2023-04-16T18:53:02.424Z,100179.56
2023-04-16T18:56:05.300Z,100168.75
2023-04-16T18:59:08.109Z,100147.53
2023-04-16T19:02:10.727Z,100143.00
2023-04-16T19:05:13.521Z,100171.09
2023-04-16T19:08:16.548Z,100171.38
2023-04-16T19:11:19.225Z,100171.81
2023-04-16T19:14:21.696Z,100162.31
2023-04-16T19:17:24.324Z,100173.88
2023-04-16T19:20:27.079Z,100152.25
2023-04-16T19:23:29.837Z,100157.78
2023-04-16T19:26:32.152Z,100152.41
2023-04-16T19:29:35.547Z,100174.59
2023-04-16T19:32:37.926Z,100166.09
2023-04-16T19:35:42.757Z,100168.97
2023-04-16T19:38:45.225Z,100144.09
2023-04-16T19:41:47.886Z,100173.63
2023-04-16T19:44:50.468Z,100146.25
2023-04-16T19:47:53.662Z,100145.53
2023-04-16T19:50:56.058Z,100168.28
2023-04-16T19:53:59.106Z,100156.59
2023-04-16T19:57:01.589Z,100166.94
2023-04-16T20:00:08.430Z,100162.84
2023-04-16T20:03:10.878Z,100151.12
2023-04-16T20:06:13.587Z,100147.94
2023-04-16T20:09:18.610Z,100133.47
2023-04-16T20:12:21.414Z,100159.09
2023-04-16T20:15:23.765Z,100155.06
2023-04-16T20:18:28.886Z,100125.09
2023-04-16T20:21:34.281Z,100131.44
2023-04-16T20:24:38.542Z,100158.66
2023-04-16T20:27:41.106Z,100130.62
2023-04-16T20:30:43.870Z,100157.84
2023-04-16T20:33:46.395Z,100155.06
2023-04-16T20:36:49.109Z,100155.34
2023-04-16T20:39:54.279Z,100148.34
2023-04-16T20:42:59.990Z,100138.13
2023-04-16T20:46:02.994Z,100154.63
2023-04-16T20:49:08.329Z,100155.50
2023-04-16T20:52:11.117Z,100126.25
2023-04-16T20:55:13.824Z,100148.34
2023-04-16T20:58:16.227Z,100130.25
2023-04-16T21:01:20.732Z,100149.53
2023-04-16T21:04:23.349Z,100143.56
2023-04-16T21:07:26.316Z,100141.06
2023-04-16T21:10:28.649Z,100126.25
2023-04-16T21:13:31.303Z,100128.94
2023-04-16T21:16:33.654Z,100146.59
2023-04-16T21:19:36.389Z,100149.00
2023-04-16T21:22:38.848Z,100148.91
2023-04-16T21:25:41.565Z,100143.66
2023-04-16T21:28:44.064Z,100141.34
2023-04-16T21:31:46.913Z,100133.03
2023-04-16T21:34:49.292Z,100124.28
2023-04-16T21:37:51.920Z,100121.87
2023-04-16T21:40:55.614Z,100115.03
2023-04-16T21:43:58.120Z,100131.25
2023-04-16T21:47:00.585Z,100138.41
2023-04-16T21:50:03.694Z,100108.34
2023-04-16T21:53:06.758Z,100129.91
2023-04-16T21:56:09.453Z,100106.56
2023-04-16T21:59:11.949Z,100119.84
2023-04-16T22:02:15.041Z,100095.31
2023-04-16T22:05:18.016Z,100097.19
2023-04-16T22:08:24.898Z,100123.16
2023-04-16T22:11:27.878Z,100101.81
2023-04-16T22:14:31.914Z,100128.25
2023-04-16T22:17:34.816Z,100097.03
2023-04-16T22:20:39.153Z,100096.56
2023-04-16T22:23:42.128Z,100115.41
2023-04-16T22:26:44.504Z,100111.47
2023-04-16T22:29:47.170Z,100084.25
2023-04-16T22:32:49.513Z,100092.38
2023-04-16T22:35:52.139Z,100092.91
2023-04-16T22:38:54.514Z,100089.69
2023-04-16T22:41:57.160Z,100075.44
2023-04-16T22:44:59.440Z,100105.06
2023-04-16T22:48:02.639Z,100107.34
2023-04-16T22:51:07.106Z,100084.91
2023-04-16T22:54:13.673Z,100099.31
2023-04-16T22:57:17.516Z,100069.91
2023-04-16T23:00:21.069Z,100064.28
2023-04-16T23:03:23.634Z,100085.16
2023-04-16T23:06:27.192Z,100084.34
2023-04-16T23:09:29.543Z,100090.69
2023-04-16T23:12:32.174Z,100070.81
2023-04-16T23:15:34.489Z,100053.84
2023-04-16T23:18:37.911Z,100051.97
2023-04-16T23:21:40.820Z,100070.81
2023-04-16T23:24:43.404Z,100048.44
2023-04-16T23:27:45.707Z,100053.94
2023-04-16T23:30:51.674Z,100067.66
2023-04-16T23:33:54.337Z,100064.81
2023-04-16T23:36:56.995Z,100069.19
2023-04-16T23:39:59.279Z,100066.41
2023-04-16T23:43:01.839Z,100065.62
2023-04-16T23:46:04.271Z,100042.97
2023-04-16T23:49:07.008Z,100062.03
2023-04-16T23:52:09.404Z,100034.06
2023-04-16T23:55:12.095Z,100050.22
2023-04-16T23:58:14.594Z,100036.38
